createdAt,value
2018-08-19T00:00:02.377Z,15.35
2018-08-19T00:01:02.262Z,15.38
2018-08-19T00:02:02.148Z,15.38
2018-08-19T00:03:02.020Z,15.31
2018-08-19T00:04:01.891Z,15.26
2018-08-19T00:05:01.773Z,15.26
2018-08-19T00:06:01.649Z,15.27
2018-08-19T00:07:01.527Z,15.33
2018-08-19T00:08:01.409Z,15.27
2018-08-19T00:09:01.290Z,15.31
2018-08-19T00:10:01.162Z,15.21
2018-08-19T00:11:01.043Z,15.33
2018-08-19T00:12:00.918Z,15.38
2018-08-19T00:13:00.797Z,15.48
2018-08-19T00:14:00.678Z,15.59
2018-08-19T00:15:00.554Z,15.60
2018-08-19T00:16:00.430Z,15.59
2018-08-19T00:17:00.307Z,15.56
2018-08-19T00:18:00.186Z,15.46
2018-08-19T00:19:00.065Z,15.45
2018-08-19T00:19:59.947Z,15.31
2018-08-19T00:20:59.827Z,15.36
2018-08-19T00:21:59.701Z,15.27
2018-08-19T00:22:59.577Z,15.35
2018-08-19T00:23:59.456Z,15.36
2018-08-19T00:24:59.337Z,15.30
2018-08-19T00:25:59.214Z,15.28
2018-08-19T00:26:59.091Z,15.28
2018-08-19T00:27:58.974Z,15.21
2018-08-19T00:28:58.848Z,15.17
2018-08-19T00:29:58.731Z,15.15
2018-08-19T00:30:58.605Z,15.27
2018-08-19T00:31:58.483Z,15.15
2018-08-19T00:32:58.360Z,15.15
2018-08-19T00:33:58.241Z,15.21
2018-08-19T00:34:58.129Z,15.21
2018-08-19T00:35:58.000Z,15.21
2018-08-19T00:36:57.873Z,15.15
2018-08-19T00:37:57.752Z,15.19
2018-08-19T00:38:57.630Z,15.17
2018-08-19T00:39:57.509Z,15.13
2018-08-19T00:40:57.394Z,15.11
2018-08-19T00:41:57.267Z,15.11
2018-08-19T00:42:57.145Z,15.05
2018-08-19T00:43:57.023Z,15.06
2018-08-19T00:44:56.899Z,15.02
2018-08-19T00:45:56.779Z,15.09
2018-08-19T00:46:56.656Z,15.03
2018-08-19T00:47:56.538Z,15.06
2018-08-19T00:48:56.414Z,14.91
2018-08-19T00:49:56.292Z,14.91
2018-08-19T00:50:56.170Z,14.93
2018-08-19T00:51:56.047Z,14.87
2018-08-19T00:52:55.926Z,14.87
2018-08-19T00:53:55.804Z,14.80
2018-08-19T00:54:55.684Z,14.87
2018-08-19T00:55:55.559Z,14.83
2018-08-19T00:56:55.440Z,14.78
2018-08-19T00:57:55.316Z,14.78
2018-08-19T00:58:55.202Z,14.81
2018-08-19T00:59:55.072Z,14.72
2018-08-19T01:00:54.948Z,14.78
2018-08-19T01:01:54.852Z,14.71
2018-08-19T01:02:54.704Z,14.74
2018-08-19T01:03:54.583Z,14.78
2018-08-19T01:04:54.461Z,14.78
2018-08-19T01:05:54.340Z,14.71
2018-08-19T01:06:54.219Z,14.75
2018-08-19T01:07:54.096Z,14.71
2018-08-19T01:08:53.973Z,14.74
2018-08-19T01:09:53.850Z,14.74
2018-08-19T01:10:53.732Z,14.75
2018-08-19T01:11:53.605Z,14.71
2018-08-19T01:12:53.483Z,14.71
2018-08-19T01:13:53.361Z,14.71
2018-08-19T01:14:53.241Z,14.74
2018-08-19T01:15:53.117Z,14.74
2018-08-19T01:16:52.994Z,14.71
2018-08-19T01:17:52.872Z,14.75
2018-08-19T01:18:52.752Z,14.80
2018-08-19T01:19:52.630Z,14.83
2018-08-19T01:20:52.504Z,14.81
2018-08-19T01:21:52.384Z,14.78
2018-08-19T01:22:52.265Z,14.74
2018-08-19T01:23:52.140Z,14.69
2018-08-19T01:24:52.022Z,14.81
2018-08-19T01:25:51.895Z,14.80
2018-08-19T01:26:51.773Z,14.83
2018-08-19T01:27:51.653Z,14.75
2018-08-19T01:28:51.530Z,14.94
2018-08-19T01:29:51.407Z,14.87
2018-08-19T01:30:51.283Z,14.88
2018-08-19T01:31:51.167Z,14.93
2018-08-19T01:32:51.045Z,14.93
2018-08-19T01:33:50.918Z,14.93
2018-08-19T01:34:50.795Z,14.86
2018-08-19T01:35:50.675Z,14.90
2018-08-19T01:36:50.551Z,14.93
2018-08-19T01:37:50.430Z,14.93
2018-08-19T01:38:50.306Z,14.91
2018-08-19T01:39:50.184Z,14.87
2018-08-19T01:40:50.064Z,14.86
2018-08-19T01:41:49.940Z,14.87
2018-08-19T01:42:49.819Z,14.87
2018-08-19T01:43:49.697Z,14.81
2018-08-19T01:44:49.575Z,14.83
2018-08-19T01:45:49.456Z,14.87
2018-08-19T01:46:49.332Z,14.83
2018-08-19T01:47:49.211Z,14.68
2018-08-19T01:48:49.086Z,14.78
2018-08-19T01:49:48.966Z,14.83
2018-08-19T01:50:48.843Z,14.75
2018-08-19T01:51:48.722Z,14.74
2018-08-19T01:52:48.601Z,14.69
2018-08-19T01:53:48.480Z,14.72
2018-08-19T01:54:48.355Z,14.68
2018-08-19T01:55:48.234Z,14.71
2018-08-19T01:56:48.110Z,14.69
2018-08-19T01:57:47.987Z,14.72
2018-08-19T01:58:47.864Z,14.75
2018-08-19T01:59:47.744Z,14.74
2018-08-19T02:00:47.622Z,14.71
2018-08-19T02:01:47.499Z,14.74
2018-08-19T02:02:47.376Z,14.74
2018-08-19T02:03:47.255Z,14.78
2018-08-19T02:04:47.134Z,14.72
2018-08-19T02:05:47.008Z,14.71
2018-08-19T02:06:46.890Z,14.74
2018-08-19T02:07:46.770Z,14.81
2018-08-19T02:08:46.642Z,14.78
2018-08-19T02:09:46.519Z,14.75
2018-08-19T02:10:46.398Z,14.75
2018-08-19T02:11:46.278Z,14.81
2018-08-19T02:12:46.152Z,14.74
2018-08-19T02:13:46.032Z,14.72
2018-08-19T02:14:45.908Z,14.74
2018-08-19T02:15:45.793Z,14.74
2018-08-19T02:16:45.666Z,14.71
2018-08-19T02:17:45.545Z,14.71
2018-08-19T02:18:45.422Z,14.64
2018-08-19T02:19:45.302Z,14.62
2018-08-19T02:20:45.234Z,14.61
2018-08-19T02:21:45.054Z,14.56
2018-08-19T02:22:44.929Z,14.64
2018-08-19T02:23:44.809Z,14.67
2018-08-19T02:24:44.687Z,14.57
2018-08-19T02:25:44.563Z,14.56
2018-08-19T02:26:44.440Z,14.52
2018-08-19T02:27:44.317Z,14.53
2018-08-19T02:28:44.198Z,14.47
2018-08-19T02:29:44.074Z,14.47
2018-08-19T02:30:43.952Z,14.46
2018-08-19T02:31:43.828Z,14.44
2018-08-19T02:32:43.704Z,14.42
2018-08-19T02:33:43.585Z,14.37
2018-08-19T02:34:43.461Z,14.35
2018-08-19T02:35:43.341Z,14.37
2018-08-19T02:36:43.215Z,14.44
2018-08-19T02:37:43.093Z,14.32
2018-08-19T02:38:42.972Z,14.24
2018-08-19T02:39:42.849Z,14.31
2018-08-19T02:40:42.727Z,14.24
2018-08-19T02:41:42.604Z,14.19
2018-08-19T02:42:42.483Z,14.19
2018-08-19T02:43:42.361Z,14.21
2018-08-19T02:44:42.237Z,14.20
2018-08-19T02:45:42.116Z,14.24
2018-08-19T02:46:41.993Z,14.16
2018-08-19T02:47:41.868Z,14.25
2018-08-19T02:48:41.747Z,14.19
2018-08-19T02:49:41.626Z,14.25
2018-08-19T02:50:41.502Z,14.24
2018-08-19T02:51:41.381Z,14.19
2018-08-19T02:52:41.254Z,14.25
2018-08-19T02:53:41.140Z,14.24
2018-08-19T02:54:41.010Z,14.20
2018-08-19T02:55:40.890Z,14.19
2018-08-19T02:56:40.765Z,14.20
2018-08-19T02:57:40.644Z,14.21
2018-08-19T02:58:40.520Z,14.19
2018-08-19T02:59:40.399Z,14.21
2018-08-19T03:00:40.275Z,14.20
2018-08-19T03:01:40.151Z,14.21
2018-08-19T03:02:40.038Z,14.21
2018-08-19T03:03:39.906Z,14.24
2018-08-19T03:04:39.786Z,14.21
2018-08-19T03:05:39.660Z,14.20
2018-08-19T03:06:39.538Z,14.27
2018-08-19T03:07:39.418Z,14.21
2018-08-19T03:08:39.293Z,14.24
2018-08-19T03:09:39.172Z,14.21
2018-08-19T03:10:39.047Z,14.21
2018-08-19T03:11:38.925Z,14.25
2018-08-19T03:12:38.801Z,14.20
2018-08-19T03:13:38.682Z,14.19
2018-08-19T03:14:38.555Z,14.20
2018-08-19T03:15:38.436Z,14.24
2018-08-19T03:16:38.311Z,14.17
2018-08-19T03:17:38.190Z,14.24
2018-08-19T03:18:38.068Z,14.21
2018-08-19T03:19:37.945Z,14.25
2018-08-19T03:20:37.820Z,14.19
2018-08-19T03:21:37.699Z,14.25
2018-08-19T03:22:37.574Z,14.24
2018-08-19T03:23:37.454Z,14.17
2018-08-19T03:24:37.328Z,14.25
2018-08-19T03:25:37.207Z,14.32
2018-08-19T03:26:37.085Z,14.31
2018-08-19T03:27:36.964Z,14.31
2018-08-19T03:28:36.838Z,14.21
2018-08-19T03:29:36.716Z,14.35
2018-08-19T03:30:36.595Z,14.21
2018-08-19T03:31:36.474Z,14.29
2018-08-19T03:32:36.347Z,14.32
2018-08-19T03:33:36.228Z,14.31
2018-08-19T03:34:36.102Z,14.32
2018-08-19T03:35:35.980Z,14.31
2018-08-19T03:36:35.859Z,14.29
2018-08-19T03:37:35.733Z,14.28
2018-08-19T03:38:35.613Z,14.32
2018-08-19T03:39:35.489Z,14.19
2018-08-19T03:40:35.368Z,14.25
2018-08-19T03:41:35.244Z,14.24
2018-08-19T03:42:35.121Z,14.28
2018-08-19T03:43:34.997Z,14.29
2018-08-19T03:44:34.876Z,14.24
2018-08-19T03:45:34.753Z,14.24
2018-08-19T03:46:34.632Z,14.24
2018-08-19T03:47:34.508Z,14.20
2018-08-19T03:48:34.382Z,14.21
2018-08-19T03:49:34.265Z,14.21
2018-08-19T03:50:34.138Z,14.21
2018-08-19T03:51:34.016Z,14.21
2018-08-19T03:52:33.893Z,14.19
2018-08-19T03:53:33.769Z,14.19
2018-08-19T03:54:33.647Z,14.19
2018-08-19T03:55:33.527Z,14.27
2018-08-19T03:56:33.402Z,14.25
2018-08-19T03:57:33.279Z,14.21
2018-08-19T03:58:33.164Z,14.21
2018-08-19T03:59:33.035Z,14.25
2018-08-19T04:00:32.911Z,14.20
2018-08-19T04:01:32.788Z,14.19
2018-08-19T04:02:32.669Z,14.19
2018-08-19T04:03:32.545Z,14.19
2018-08-19T04:04:32.422Z,14.21
2018-08-19T04:05:32.297Z,14.16
2018-08-19T04:06:32.176Z,14.20
2018-08-19T04:07:32.053Z,14.21
2018-08-19T04:08:31.935Z,14.24
2018-08-19T04:09:31.806Z,14.16
2018-08-19T04:10:31.684Z,14.21
2018-08-19T04:11:31.563Z,14.17
2018-08-19T04:12:31.440Z,14.16
2018-08-19T04:13:31.317Z,14.19
2018-08-19T04:14:31.192Z,14.16
2018-08-19T04:15:31.072Z,14.24
2018-08-19T04:16:30.948Z,14.20
2018-08-19T04:17:30.828Z,14.27
2018-08-19T04:18:30.704Z,14.21
2018-08-19T04:19:30.588Z,14.17
2018-08-19T04:20:30.463Z,14.20
2018-08-19T04:21:30.333Z,14.24
2018-08-19T04:22:30.212Z,14.25
2018-08-19T04:23:30.151Z,14.21
2018-08-19T04:24:29.969Z,14.14
2018-08-19T04:25:29.845Z,14.14
2018-08-19T04:26:29.721Z,14.17
2018-08-19T04:27:29.599Z,14.25
2018-08-19T04:28:29.476Z,14.16
2018-08-19T04:29:29.353Z,14.21
2018-08-19T04:30:29.230Z,14.24
2018-08-19T04:31:29.112Z,14.20
2018-08-19T04:32:28.988Z,14.25
2018-08-19T04:33:28.863Z,14.17
2018-08-19T04:34:28.741Z,14.16
2018-08-19T04:35:28.618Z,14.09
2018-08-19T04:36:28.495Z,14.19
2018-08-19T04:37:28.375Z,14.06
2018-08-19T04:38:28.250Z,14.19
2018-08-19T04:39:28.129Z,14.09
2018-08-19T04:40:28.033Z,14.09
2018-08-19T04:41:27.884Z,14.10
2018-08-19T04:42:27.812Z,14.09
2018-08-19T04:43:27.639Z,14.07
2018-08-19T04:44:27.517Z,14.10
2018-08-19T04:45:27.393Z,14.09
2018-08-19T04:46:27.273Z,14.13
2018-08-19T04:47:27.147Z,14.10
2018-08-19T04:48:27.024Z,14.10
2018-08-19T04:49:26.901Z,14.20
2018-08-19T04:50:26.790Z,14.09
2018-08-19T04:51:26.658Z,14.09
2018-08-19T04:52:26.531Z,14.20
2018-08-19T04:53:26.408Z,14.16
2018-08-19T04:54:26.288Z,14.24
2018-08-19T04:55:26.168Z,14.17
2018-08-19T04:56:26.041Z,14.21
2018-08-19T04:57:25.925Z,14.24
2018-08-19T04:58:25.796Z,14.20
2018-08-19T04:59:25.695Z,14.28
2018-08-19T05:00:25.550Z,14.25
2018-08-19T05:01:25.429Z,14.29
2018-08-19T05:02:25.358Z,14.28
2018-08-19T05:03:25.185Z,14.21
2018-08-19T05:04:25.060Z,14.32
2018-08-19T05:05:24.943Z,14.37
2018-08-19T05:06:24.817Z,14.38
2018-08-19T05:07:24.695Z,14.31
2018-08-19T05:08:24.644Z,14.47
2018-08-19T05:09:24.448Z,14.46
2018-08-19T05:10:24.327Z,14.42
2018-08-19T05:11:24.203Z,14.43
2018-08-19T05:12:24.081Z,14.53
2018-08-19T05:13:23.957Z,14.49
2018-08-19T05:14:23.835Z,14.60
2018-08-19T05:15:23.773Z,14.57
2018-08-19T05:16:23.596Z,14.62
2018-08-19T05:17:23.467Z,14.60
2018-08-19T05:18:23.347Z,14.61
2018-08-19T05:19:23.227Z,14.57
2018-08-19T05:20:23.103Z,14.57
2018-08-19T05:21:22.977Z,14.69
2018-08-19T05:22:22.921Z,14.75
2018-08-19T05:23:22.736Z,14.74
2018-08-19T05:24:22.609Z,14.94
2018-08-19T05:25:22.487Z,15.03
2018-08-19T05:26:22.370Z,15.13
2018-08-19T05:27:22.243Z,15.24
2018-08-19T05:28:22.142Z,15.31
2018-08-19T05:29:21.999Z,15.36
2018-08-19T05:30:21.878Z,15.36
2018-08-19T05:31:21.778Z,15.61
2018-08-19T05:32:21.635Z,15.57
2018-08-19T05:33:21.513Z,15.66
2018-08-19T05:34:21.390Z,15.74
2018-08-19T05:35:21.267Z,15.76
2018-08-19T05:36:21.145Z,15.70
2018-08-19T05:37:21.027Z,15.64
2018-08-19T05:38:20.901Z,15.49
2018-08-19T05:39:20.782Z,15.57
2018-08-19T05:40:20.658Z,15.68
2018-08-19T05:41:20.537Z,15.68
2018-08-19T05:42:20.415Z,15.46
2018-08-19T05:43:20.293Z,15.54
2018-08-19T05:44:20.171Z,15.63
2018-08-19T05:45:20.051Z,15.72
2018-08-19T05:46:19.928Z,15.70
2018-08-19T05:47:19.808Z,15.63
2018-08-19T05:48:19.685Z,15.61
2018-08-19T05:49:19.563Z,15.54
2018-08-19T05:50:19.442Z,15.67
2018-08-19T05:51:19.323Z,15.63
2018-08-19T05:52:19.200Z,15.94
2018-08-19T05:53:19.084Z,16.03
2018-08-19T05:54:18.955Z,16.25
2018-08-19T05:55:18.836Z,16.38
2018-08-19T05:56:18.715Z,16.49
2018-08-19T05:57:18.592Z,16.60
2018-08-19T05:58:18.473Z,16.74
2018-08-19T05:59:18.349Z,16.78
2018-08-19T06:00:18.229Z,16.90
2018-08-19T06:01:18.156Z,16.95
2018-08-19T06:02:17.984Z,16.96
2018-08-19T06:03:17.866Z,16.92
2018-08-19T06:04:17.812Z,16.90
2018-08-19T06:05:17.620Z,16.93
2018-08-19T06:06:17.500Z,17.10
2018-08-19T06:07:17.378Z,17.26
2018-08-19T06:08:17.256Z,17.23
2018-08-19T06:09:17.137Z,17.32
2018-08-19T06:10:17.030Z,17.40
2018-08-19T06:11:16.893Z,17.43
2018-08-19T06:12:16.772Z,17.29
2018-08-19T06:13:16.653Z,17.35
2018-08-19T06:14:16.529Z,17.38
2018-08-19T06:15:16.408Z,17.47
2018-08-19T06:16:16.291Z,17.48
2018-08-19T06:17:16.169Z,17.46
2018-08-19T06:18:16.045Z,17.30
2018-08-19T06:19:15.925Z,17.40
2018-08-19T06:20:15.805Z,17.30
2018-08-19T06:21:15.683Z,17.29
2018-08-19T06:22:15.564Z,17.30
2018-08-19T06:23:15.440Z,17.38
2018-08-19T06:24:15.318Z,17.43
2018-08-19T06:25:15.202Z,17.44
2018-08-19T06:26:15.077Z,17.43
2018-08-19T06:27:14.960Z,17.57
2018-08-19T06:28:14.836Z,17.53
2018-08-19T06:29:14.713Z,17.63
2018-08-19T06:30:14.592Z,17.67
2018-08-19T06:31:14.550Z,17.54
2018-08-19T06:32:14.350Z,17.59
2018-08-19T06:33:14.228Z,17.62
2018-08-19T06:34:14.112Z,17.54
2018-08-19T06:35:13.988Z,17.62
2018-08-19T06:36:13.866Z,17.71
2018-08-19T06:37:13.746Z,17.82
2018-08-19T06:38:13.627Z,17.79
2018-08-19T06:39:13.505Z,17.97
2018-08-19T06:40:13.385Z,18.07
2018-08-19T06:41:13.261Z,18.18
2018-08-19T06:42:13.141Z,18.18
2018-08-19T06:43:13.125Z,18.21
2018-08-19T06:44:12.900Z,18.17
2018-08-19T06:45:12.778Z,18.33
2018-08-19T06:46:12.659Z,18.33
2018-08-19T06:47:12.540Z,18.44
2018-08-19T06:48:12.417Z,18.67
2018-08-19T06:49:12.297Z,18.74
2018-08-19T06:50:12.179Z,18.90
2018-08-19T06:51:12.106Z,18.98
2018-08-19T06:52:12.015Z,19.08
2018-08-19T06:53:11.817Z,19.17
2018-08-19T06:54:11.696Z,19.17
2018-08-19T06:55:11.578Z,19.14
2018-08-19T06:56:11.456Z,19.23
2018-08-19T06:57:11.336Z,19.39
2018-08-19T06:58:11.219Z,19.36
2018-08-19T06:59:11.096Z,19.48
2018-08-19T07:00:10.976Z,19.61
2018-08-19T07:01:10.856Z,19.60
2018-08-19T07:02:10.739Z,19.55
2018-08-19T07:03:10.672Z,19.51
2018-08-19T07:04:10.499Z,19.20
2018-08-19T07:05:10.378Z,19.24
2018-08-19T07:06:10.262Z,19.36
2018-08-19T07:07:10.138Z,19.28
2018-08-19T07:08:10.021Z,19.14
2018-08-19T07:09:09.898Z,19.08
2018-08-19T07:10:09.781Z,18.90
2018-08-19T07:11:09.660Z,18.94
2018-08-19T07:12:09.540Z,18.95
2018-08-19T07:13:09.421Z,19.11
2018-08-19T07:14:09.300Z,19.14
2018-08-19T07:15:09.180Z,19.21
2018-08-19T07:16:09.064Z,19.33
2018-08-19T07:17:08.942Z,19.55
2018-08-19T07:18:08.826Z,19.76
2018-08-19T07:19:08.702Z,19.58
2018-08-19T07:20:08.582Z,19.40
2018-08-19T07:21:08.464Z,19.36
2018-08-19T07:22:08.465Z,19.35
2018-08-19T07:23:08.225Z,19.29
2018-08-19T07:24:08.121Z,19.11
2018-08-19T07:25:07.984Z,19.18
2018-08-19T07:26:07.864Z,18.98
2018-08-19T07:27:07.745Z,19.13
2018-08-19T07:28:07.623Z,19.14
2018-08-19T07:29:07.506Z,19.25
2018-08-19T07:30:07.386Z,19.38
2018-08-19T07:31:07.266Z,19.48
2018-08-19T07:32:07.147Z,19.63
2018-08-19T07:33:07.026Z,19.78
2018-08-19T07:34:06.906Z,19.84
2018-08-19T07:35:06.807Z,19.95
2018-08-19T07:36:06.668Z,19.91
2018-08-19T07:37:06.624Z,19.94
2018-08-19T07:38:06.430Z,19.88
2018-08-19T07:39:06.309Z,19.94
2018-08-19T07:40:06.188Z,20.06
2018-08-19T07:41:06.069Z,20.03
2018-08-19T07:42:05.949Z,20.13
2018-08-19T07:43:05.829Z,20.03
2018-08-19T07:44:05.709Z,20.12
2018-08-19T07:45:05.593Z,20.10
2018-08-19T07:46:05.473Z,20.30
2018-08-19T07:47:05.352Z,20.16
2018-08-19T07:48:05.233Z,20.05
2018-08-19T07:49:05.116Z,20.08
2018-08-19T07:50:04.995Z,20.20
2018-08-19T07:51:04.883Z,20.28
2018-08-19T07:52:04.759Z,20.35
2018-08-19T07:53:04.636Z,20.30
2018-08-19T07:54:04.520Z,20.27
2018-08-19T07:55:04.400Z,20.34
2018-08-19T07:56:04.279Z,20.56
2018-08-19T07:57:04.166Z,20.83
2018-08-19T07:58:04.043Z,20.86
2018-08-19T07:59:03.926Z,20.80
2018-08-19T08:00:03.805Z,20.83
2018-08-19T08:01:03.686Z,20.86
2018-08-19T08:02:03.568Z,20.99
2018-08-19T08:03:03.454Z,20.96
2018-08-19T08:04:03.329Z,21.09
2018-08-19T08:05:03.210Z,21.32
2018-08-19T08:06:03.173Z,21.32
2018-08-19T08:07:02.975Z,21.48
2018-08-19T08:08:02.859Z,21.11
2018-08-19T08:09:02.738Z,20.76
2018-08-19T08:10:02.619Z,20.62
2018-08-19T08:11:02.533Z,20.89
2018-08-19T08:12:02.381Z,20.83
2018-08-19T08:13:02.265Z,20.77
2018-08-19T08:14:02.158Z,20.89
2018-08-19T08:15:02.030Z,20.77
2018-08-19T08:16:01.910Z,21.13
2018-08-19T08:17:01.793Z,21.24
2018-08-19T08:18:01.676Z,21.39
2018-08-19T08:19:01.560Z,21.32
2018-08-19T08:20:01.441Z,21.39
2018-08-19T08:21:01.340Z,21.35
2018-08-19T08:22:01.207Z,21.05
2018-08-19T08:23:01.111Z,20.90
2018-08-19T08:24:00.967Z,20.87
2018-08-19T08:25:00.854Z,20.86
2018-08-19T08:26:00.733Z,21.19
2018-08-19T08:27:00.616Z,21.17
2018-08-19T08:28:00.495Z,21.27
2018-08-19T08:29:00.410Z,21.39
2018-08-19T08:30:00.302Z,21.57
2018-08-19T08:31:00.143Z,21.50
2018-08-19T08:32:00.028Z,21.59
2018-08-19T08:32:59.908Z,21.69
2018-08-19T08:33:59.791Z,21.78
2018-08-19T08:34:59.671Z,21.72
2018-08-19T08:35:59.554Z,21.72
2018-08-19T08:36:59.435Z,21.90
2018-08-19T08:37:59.317Z,21.66
2018-08-19T08:38:59.200Z,21.56
2018-08-19T08:39:59.082Z,21.79
2018-08-19T08:40:58.963Z,21.74
2018-08-19T08:41:58.846Z,21.90
2018-08-19T08:42:58.730Z,21.60
2018-08-19T08:43:58.611Z,21.66
2018-08-19T08:44:58.494Z,21.57
2018-08-19T08:45:58.627Z,21.71
2018-08-19T08:46:58.260Z,21.63
2018-08-19T08:47:58.423Z,21.67
2018-08-19T08:48:58.264Z,21.75
2018-08-19T08:49:57.916Z,21.98
2018-08-19T08:50:57.790Z,22.07
2018-08-19T08:51:57.669Z,22.12
2018-08-19T08:52:57.556Z,22.10
2018-08-19T08:53:57.433Z,22.28
2018-08-19T08:54:57.318Z,22.28
2018-08-19T08:55:57.197Z,22.23
2018-08-19T08:56:57.098Z,22.44
2018-08-19T08:57:56.963Z,22.56
2018-08-19T08:58:56.845Z,22.09
2018-08-19T08:59:56.728Z,22.04
2018-08-19T09:00:56.612Z,22.25
2018-08-19T09:01:56.497Z,22.44
2018-08-19T09:02:56.379Z,22.83
2018-08-19T09:03:56.261Z,22.64
2018-08-19T09:04:56.214Z,22.53
2018-08-19T09:05:56.040Z,22.65
2018-08-19T09:06:55.909Z,22.83
2018-08-19T09:07:55.791Z,22.82
2018-08-19T09:08:55.678Z,23.11
2018-08-19T09:09:55.557Z,23.29
2018-08-19T09:10:55.444Z,23.35
2018-08-19T09:11:55.328Z,23.40
2018-08-19T09:12:55.208Z,23.29
2018-08-19T09:13:55.159Z,23.26
2018-08-19T09:14:54.974Z,23.45
2018-08-19T09:15:54.859Z,23.45
2018-08-19T09:16:54.744Z,23.40
2018-08-19T09:17:54.626Z,23.24
2018-08-19T09:18:54.511Z,23.24
2018-08-19T09:19:54.393Z,23.27
2018-08-19T09:20:54.274Z,23.31
2018-08-19T09:21:54.160Z,23.39
2018-08-19T09:22:54.122Z,23.35
2018-08-19T09:23:53.924Z,23.32
2018-08-19T09:24:53.810Z,23.34
2018-08-19T09:25:53.705Z,23.43
2018-08-19T09:26:53.574Z,23.26
2018-08-19T09:27:53.459Z,23.14
2018-08-19T09:28:53.341Z,23.17
2018-08-19T09:29:53.224Z,23.17
2018-08-19T09:30:53.110Z,23.46
2018-08-19T09:31:52.990Z,23.60
2018-08-19T09:32:52.919Z,23.50
2018-08-19T09:33:52.759Z,23.23
2018-08-19T09:34:52.643Z,23.11
2018-08-19T09:35:52.523Z,23.02
2018-08-19T09:36:52.408Z,22.89
2018-08-19T09:37:52.292Z,22.78
2018-08-19T09:38:52.174Z,22.92
2018-08-19T09:39:52.057Z,22.84
2018-08-19T09:40:52.005Z,23.15
2018-08-19T09:41:51.822Z,23.38
2018-08-19T09:42:51.708Z,23.46
2018-08-19T09:43:51.589Z,23.46
2018-08-19T09:44:51.615Z,23.42
2018-08-19T09:45:51.357Z,23.01
2018-08-19T09:46:51.239Z,22.72
2018-08-19T09:47:51.307Z,22.49
2018-08-19T09:48:51.008Z,22.28
2018-08-19T09:49:50.890Z,21.97
2018-08-19T09:50:50.775Z,21.83
2018-08-19T09:51:50.657Z,21.71
2018-08-19T09:52:50.540Z,21.60
2018-08-19T09:53:50.439Z,21.56
2018-08-19T09:54:50.307Z,21.41
2018-08-19T09:55:50.195Z,21.27
2018-08-19T09:56:50.073Z,20.89
2018-08-19T09:57:49.961Z,20.74
2018-08-19T09:58:49.840Z,20.56
2018-08-19T09:59:49.723Z,20.47
2018-08-19T10:00:49.603Z,20.38
2018-08-19T10:01:49.488Z,20.27
2018-08-19T10:02:49.371Z,20.30
2018-08-19T10:03:49.254Z,20.30
2018-08-19T10:04:49.136Z,20.30
2018-08-19T10:05:49.019Z,20.59
2018-08-19T10:06:48.901Z,20.77
2018-08-19T10:07:48.850Z,21.27
2018-08-19T10:08:48.666Z,21.48
2018-08-19T10:09:48.547Z,21.69
2018-08-19T10:10:48.431Z,21.99
2018-08-19T10:11:48.313Z,22.14
2018-08-19T10:12:48.194Z,22.31
2018-08-19T10:13:48.081Z,22.72
2018-08-19T10:14:47.966Z,23.12
2018-08-19T10:15:47.844Z,23.42
2018-08-19T10:16:47.754Z,23.61
2018-08-19T10:17:47.709Z,23.47
2018-08-19T10:18:47.491Z,23.35
2018-08-19T10:19:47.396Z,23.42
2018-08-19T10:20:47.262Z,23.46
2018-08-19T10:21:47.146Z,23.72
2018-08-19T10:22:47.027Z,24.14
2018-08-19T10:23:46.918Z,24.38
2018-08-19T10:24:46.790Z,24.56
2018-08-19T10:25:46.674Z,24.69
2018-08-19T10:26:46.561Z,24.79
2018-08-19T10:27:46.444Z,24.69
2018-08-19T10:28:46.350Z,24.75
2018-08-19T10:29:46.218Z,24.57
2018-08-19T10:30:46.140Z,24.71
2018-08-19T10:31:45.995Z,24.90
2018-08-19T10:32:45.863Z,24.76
2018-08-19T10:33:45.749Z,24.14
2018-08-19T10:34:45.634Z,23.76
2018-08-19T10:35:45.516Z,23.70
2018-08-19T10:36:45.402Z,23.57
2018-08-19T10:37:45.286Z,23.50
2018-08-19T10:38:45.173Z,23.64
2018-08-19T10:39:45.063Z,23.80
2018-08-19T10:40:44.940Z,23.77
2018-08-19T10:41:44.823Z,23.80
2018-08-19T10:42:44.710Z,23.77
2018-08-19T10:43:44.593Z,23.68
2018-08-19T10:44:44.478Z,23.53
2018-08-19T10:45:44.363Z,23.45
2018-08-19T10:46:44.248Z,23.35
2018-08-19T10:47:44.129Z,23.24
2018-08-19T10:48:44.015Z,23.34
2018-08-19T10:49:43.898Z,23.61
2018-08-19T10:50:43.783Z,24.10
2018-08-19T10:51:43.668Z,24.53
2018-08-19T10:52:43.549Z,24.92
2018-08-19T10:53:43.440Z,25.20
2018-08-19T10:54:43.322Z,25.10
2018-08-19T10:55:43.207Z,24.94
2018-08-19T10:56:43.092Z,24.80
2018-08-19T10:57:42.976Z,24.98
2018-08-19T10:58:42.860Z,25.38
2018-08-19T10:59:42.798Z,25.64
2018-08-19T11:00:42.629Z,25.68
2018-08-19T11:01:42.515Z,26.15
2018-08-19T11:02:42.401Z,26.31
2018-08-19T11:03:42.284Z,26.52
2018-08-19T11:04:42.174Z,26.59
2018-08-19T11:05:42.059Z,26.99
2018-08-19T11:06:41.990Z,26.80
2018-08-19T11:07:41.827Z,26.44
2018-08-19T11:08:41.720Z,26.02
2018-08-19T11:09:41.602Z,26.05
2018-08-19T11:10:41.488Z,25.68
2018-08-19T11:11:41.373Z,25.54
2018-08-19T11:12:41.259Z,26.04
2018-08-19T11:13:41.145Z,26.42
2018-08-19T11:14:41.087Z,26.24
2018-08-19T11:15:40.918Z,25.93
2018-08-19T11:16:40.858Z,25.97
2018-08-19T11:17:40.687Z,26.17
2018-08-19T11:18:40.577Z,26.61
2018-08-19T11:19:40.459Z,26.96
2018-08-19T11:20:40.346Z,27.04
2018-08-19T11:21:40.238Z,26.95
2018-08-19T11:22:40.130Z,26.94
2018-08-19T11:23:40.005Z,26.80
2018-08-19T11:24:39.893Z,27.42
2018-08-19T11:25:39.785Z,27.74
2018-08-19T11:26:39.665Z,27.84
2018-08-19T11:27:39.662Z,27.84
2018-08-19T11:28:39.457Z,27.71
2018-08-19T11:29:39.433Z,27.71
2018-08-19T11:30:39.214Z,27.41
2018-08-19T11:31:39.102Z,26.98
2018-08-19T11:32:38.986Z,27.21
2018-08-19T11:33:38.875Z,27.26
2018-08-19T11:34:39.035Z,27.38
2018-08-19T11:35:38.707Z,27.46
2018-08-19T11:36:38.658Z,27.69
2018-08-19T11:37:38.670Z,27.51
2018-08-19T11:38:38.311Z,27.85
2018-08-19T11:39:38.195Z,28.06
2018-08-19T11:40:38.084Z,28.28
2018-08-19T11:41:37.971Z,28.40
2018-08-19T11:42:37.899Z,28.63
2018-08-19T11:43:37.749Z,28.14
2018-08-19T11:44:37.634Z,27.51
2018-08-19T11:45:37.520Z,27.36
2018-08-19T11:46:37.413Z,27.51
2018-08-19T11:47:37.297Z,27.94
2018-08-19T11:48:37.237Z,27.76
2018-08-19T11:49:37.072Z,27.47
2018-08-19T11:50:36.963Z,27.29
2018-08-19T11:51:36.846Z,27.04
2018-08-19T11:52:36.734Z,26.74
2018-08-19T11:53:36.622Z,26.67
2018-08-19T11:54:36.508Z,26.39
2018-08-19T11:55:36.393Z,26.37
2018-08-19T11:56:36.349Z,26.50
2018-08-19T11:57:36.170Z,26.40
2018-08-19T11:58:36.282Z,26.36
2018-08-19T11:59:35.943Z,26.06
2018-08-19T12:00:35.831Z,25.71
2018-08-19T12:01:35.716Z,25.72
2018-08-19T12:02:35.605Z,25.80
2018-08-19T12:03:35.490Z,25.79
2018-08-19T12:04:35.374Z,25.65
2018-08-19T12:05:35.263Z,25.53
2018-08-19T12:06:35.148Z,25.50
2018-08-19T12:07:35.043Z,25.72
2018-08-19T12:08:34.921Z,25.84
2018-08-19T12:09:34.810Z,26.72
2018-08-19T12:10:34.695Z,27.21
2018-08-19T12:11:34.581Z,27.99
2018-08-19T12:12:34.466Z,28.23
2018-08-19T12:13:34.354Z,28.65
2018-08-19T12:14:34.241Z,28.96
2018-08-19T12:15:34.126Z,29.13
2018-08-19T12:16:34.015Z,29.60
2018-08-19T12:17:33.903Z,29.84
2018-08-19T12:18:33.792Z,29.29
2018-08-19T12:19:33.680Z,29.68
2018-08-19T12:20:33.569Z,29.82
2018-08-19T12:21:33.464Z,29.16
2018-08-19T12:22:33.345Z,28.35
2018-08-19T12:23:33.232Z,28.06
2018-08-19T12:24:33.123Z,28.50
2018-08-19T12:25:33.013Z,29.23
2018-08-19T12:26:32.900Z,29.86
2018-08-19T12:27:32.924Z,29.81
2018-08-19T12:28:32.681Z,30.33
2018-08-19T12:29:32.571Z,30.11
2018-08-19T12:30:32.460Z,29.50
2018-08-19T12:31:32.348Z,29.08
2018-08-19T12:32:32.326Z,29.35
2018-08-19T12:33:32.128Z,29.23
2018-08-19T12:34:32.022Z,29.84
2018-08-19T12:35:31.909Z,30.02
2018-08-19T12:36:31.795Z,30.43
2018-08-19T12:37:31.711Z,30.71
2018-08-19T12:38:31.577Z,30.91
2018-08-19T12:39:31.467Z,30.30
2018-08-19T12:40:31.357Z,30.33
2018-08-19T12:41:31.246Z,30.57
2018-08-19T12:42:31.137Z,30.74
2018-08-19T12:43:31.026Z,30.71
2018-08-19T12:44:30.917Z,30.49
2018-08-19T12:45:30.807Z,30.99
2018-08-19T12:46:30.697Z,31.57
2018-08-19T12:47:30.591Z,31.13
2018-08-19T12:48:30.479Z,30.93
2018-08-19T12:49:30.368Z,30.53
2018-08-19T12:50:30.260Z,29.97